Terminal Aerodrome Forecast
Issued by NWS Twin Cities, MN

Home | Current Version | Previous Version | Graphics & Text | Print | Product List | Glossary On
Versions: 1 2 3 4 5 6 7 8 9 10 11 12 13 14 15 16
000
FTUS43 KMPX 171746
TAFSTC
TAF
KSTC 171746Z 1718/1818 19011G20KT P6SM SKC
     FM180200 18007KT P6SM SCT200
     FM180900 18005KT P6SM BKN110
     FM181100 26004KT P6SM BKN090
     FM181300 35005KT P6SM BKN050
     FM181700 05005KT P6SM -SHRA VCTS SCT030 BKN050CB=

USA.gov is the U.S. government's official web portal to all federal, state and local government web resources and services.